sensor_id;sensor_type;location;lat;lon;timestamp;P1;durP1;ratioP1;P2;durP2;ratioP2
76701;SDS011;65630;44.498;0.166;2022-12-04T00:01:03;41.67;;;21.43;;
76701;SDS011;65630;44.498;0.166;2022-12-04T00:14:54;35.23;;;19.30;;
76701;SDS011;65630;44.498;0.166;2022-12-04T00:28:47;34.23;;;18.37;;
76701;SDS011;65630;44.498;0.166;2022-12-04T00:42:36;38.43;;;19.50;;
76701;SDS011;65630;44.498;0.166;2022-12-04T00:56:27;36.57;;;16.10;;
76701;SDS011;65630;44.498;0.166;2022-12-04T01:10:18;34.40;;;15.47;;
76701;SDS011;65630;44.498;0.166;2022-12-04T01:24:09;37.07;;;19.53;;
76701;SDS011;65630;44.498;0.166;2022-12-04T01:37:59;27.30;;;14.37;;
76701;SDS011;65630;44.498;0.166;2022-12-04T02:05:40;27.70;;;15.13;;
76701;SDS011;65630;44.498;0.166;2022-12-04T02:19:45;28.03;;;15.67;;
76701;SDS011;65630;44.498;0.166;2022-12-04T02:33:22;31.97;;;15.47;;
76701;SDS011;65630;44.498;0.166;2022-12-04T02:47:12;41.70;;;21.47;;
76701;SDS011;65630;44.498;0.166;2022-12-04T03:01:05;33.50;;;15.57;;
76701;SDS011;65630;44.498;0.166;2022-12-04T03:14:55;36.90;;;18.90;;
76701;SDS011;65630;44.498;0.166;2022-12-04T03:28:46;43.87;;;23.13;;
76701;SDS011;65630;44.498;0.166;2022-12-04T03:42:36;40.90;;;22.83;;
76701;SDS011;65630;44.498;0.166;2022-12-04T03:56:25;30.37;;;14.63;;
76701;SDS011;65630;44.498;0.166;2022-12-04T04:10:18;29.83;;;14.77;;
76701;SDS011;65630;44.498;0.166;2022-12-04T04:24:07;86.17;;;22.97;;
76701;SDS011;65630;44.498;0.166;2022-12-04T04:37:58;60.73;;;19.87;;
76701;SDS011;65630;44.498;0.166;2022-12-04T04:51:47;124.93;;;36.93;;
76701;SDS011;65630;44.498;0.166;2022-12-04T05:05:38;62.07;;;28.03;;
76701;SDS011;65630;44.498;0.166;2022-12-04T05:19:31;46.03;;;22.33;;
76701;SDS011;65630;44.498;0.166;2022-12-04T05:33:19;221.17;;;38.07;;
76701;SDS011;65630;44.498;0.166;2022-12-04T05:47:10;511.00;;;46.90;;
76701;SDS011;65630;44.498;0.166;2022-12-04T06:01:00;778.77;;;86.10;;
76701;SDS011;65630;44.498;0.166;2022-12-04T06:14:50;804.93;;;105.47;;
76701;SDS011;65630;44.498;0.166;2022-12-04T06:28:41;536.43;;;85.50;;
76701;SDS011;65630;44.498;0.166;2022-12-04T06:42:32;561.50;;;71.40;;
76701;SDS011;65630;44.498;0.166;2022-12-04T06:56:23;496.83;;;62.83;;
76701;SDS011;65630;44.498;0.166;2022-12-04T07:10:12;246.70;;;67.70;;
76701;SDS011;65630;44.498;0.166;2022-12-04T07:24:03;84.30;;;45.93;;
76701;SDS011;65630;44.498;0.166;2022-12-04T07:37:53;161.83;;;42.60;;
76701;SDS011;65630;44.498;0.166;2022-12-04T07:51:44;128.90;;;33.27;;
76701;SDS011;65630;44.498;0.166;2022-12-04T08:05:34;250.03;;;41.87;;
76701;SDS011;65630;44.498;0.166;2022-12-04T08:19:25;116.63;;;24.10;;
76701;SDS011;65630;44.498;0.166;2022-12-04T08:33:15;63.97;;;14.63;;
76701;SDS011;65630;44.498;0.166;2022-12-04T08:47:07;74.30;;;17.10;;
76701;SDS011;65630;44.498;0.166;2022-12-04T09:01:02;172.00;;;19.47;;
76701;SDS011;65630;44.498;0.166;2022-12-04T09:14:49;78.30;;;13.90;;
76701;SDS011;65630;44.498;0.166;2022-12-04T09:28:39;122.17;;;13.30;;
76701;SDS011;65630;44.498;0.166;2022-12-04T09:42:33;89.47;;;12.57;;
76701;SDS011;65630;44.498;0.166;2022-12-04T09:56:22;32.17;;;11.80;;
76701;SDS011;65630;44.498;0.166;2022-12-04T10:10:18;89.50;;;9.80;;
76701;SDS011;65630;44.498;0.166;2022-12-04T10:24:10;39.63;;;11.13;;
76701;SDS011;65630;44.498;0.166;2022-12-04T10:38:01;28.37;;;14.43;;
76701;SDS011;65630;44.498;0.166;2022-12-04T10:51:48;69.30;;;16.87;;
76701;SDS011;65630;44.498;0.166;2022-12-04T11:05:40;30.87;;;18.07;;
76701;SDS011;65630;44.498;0.166;2022-12-04T11:19:32;26.57;;;14.83;;
76701;SDS011;65630;44.498;0.166;2022-12-04T11:33:26;24.13;;;14.37;;
76701;SDS011;65630;44.498;0.166;2022-12-04T11:47:21;15.47;;;10.33;;
76701;SDS011;65630;44.498;0.166;2022-12-04T12:01:14;14.17;;;10.37;;
76701;SDS011;65630;44.498;0.166;2022-12-04T12:15:03;10.70;;;8.07;;
76701;SDS011;65630;44.498;0.166;2022-12-04T12:42:46;6.83;;;5.60;;
76701;SDS011;65630;44.498;0.166;2022-12-04T13:10:24;7.03;;;5.87;;
76701;SDS011;65630;44.498;0.166;2022-12-04T13:24:22;7.73;;;5.47;;
76701;SDS011;65630;44.498;0.166;2022-12-04T13:38:08;7.50;;;5.27;;
76701;SDS011;65630;44.498;0.166;2022-12-04T13:51:52;8.40;;;5.97;;
76701;SDS011;65630;44.498;0.166;2022-12-04T14:05:41;7.23;;;5.97;;
76701;SDS011;65630;44.498;0.166;2022-12-04T14:19:35;5.20;;;4.40;;
76701;SDS011;65630;44.498;0.166;2022-12-04T14:33:25;8.77;;;3.80;;
76701;SDS011;65630;44.498;0.166;2022-12-04T14:47:19;8.53;;;6.43;;
76701;SDS011;65630;44.498;0.166;2022-12-04T15:01:05;9.47;;;5.00;;
76701;SDS011;65630;44.498;0.166;2022-12-04T15:14:56;8.67;;;5.03;;
76701;SDS011;65630;44.498;0.166;2022-12-04T15:28:47;9.57;;;5.93;;
76701;SDS011;65630;44.498;0.166;2022-12-04T15:42:34;9.30;;;5.57;;
76701;SDS011;65630;44.498;0.166;2022-12-04T15:56:24;10.47;;;7.30;;
76701;SDS011;65630;44.498;0.166;2022-12-04T16:10:19;11.13;;;7.50;;
76701;SDS011;65630;44.498;0.166;2022-12-04T16:24:04;9.77;;;5.50;;
76701;SDS011;65630;44.498;0.166;2022-12-04T16:37:53;8.03;;;5.63;;
76701;SDS011;65630;44.498;0.166;2022-12-04T16:51:44;12.43;;;7.33;;
76701;SDS011;65630;44.498;0.166;2022-12-04T17:05:34;12.57;;;6.60;;
76701;SDS011;65630;44.498;0.166;2022-12-04T17:19:26;12.57;;;7.40;;
76701;SDS011;65630;44.498;0.166;2022-12-04T17:33:16;12.37;;;8.40;;
76701;SDS011;65630;44.498;0.166;2022-12-04T17:47:05;11.43;;;7.90;;
76701;SDS011;65630;44.498;0.166;2022-12-04T18:00:59;15.53;;;9.63;;
76701;SDS011;65630;44.498;0.166;2022-12-04T18:14:45;19.40;;;10.57;;
76701;SDS011;65630;44.498;0.166;2022-12-04T18:28:35;22.37;;;10.40;;
76701;SDS011;65630;44.498;0.166;2022-12-04T18:42:25;20.87;;;9.77;;
76701;SDS011;65630;44.498;0.166;2022-12-04T18:56:16;23.93;;;12.00;;
76701;SDS011;65630;44.498;0.166;2022-12-04T19:10:07;20.80;;;12.23;;
76701;SDS011;65630;44.498;0.166;2022-12-04T19:23:57;26.70;;;13.50;;
76701;SDS011;65630;44.498;0.166;2022-12-04T19:37:50;20.47;;;11.80;;
76701;SDS011;65630;44.498;0.166;2022-12-04T19:51:36;32.13;;;15.53;;
76701;SDS011;65630;44.498;0.166;2022-12-04T20:05:27;23.73;;;11.93;;
76701;SDS011;65630;44.498;0.166;2022-12-04T20:19:18;31.17;;;13.70;;
76701;SDS011;65630;44.498;0.166;2022-12-04T20:33:08;35.13;;;16.73;;
76701;SDS011;65630;44.498;0.166;2022-12-04T20:46:59;28.57;;;14.00;;
76701;SDS011;65630;44.498;0.166;2022-12-04T21:00:49;20.77;;;12.60;;
76701;SDS011;65630;44.498;0.166;2022-12-04T21:14:40;19.53;;;10.47;;
76701;SDS011;65630;44.498;0.166;2022-12-04T21:28:30;28.97;;;12.23;;
76701;SDS011;65630;44.498;0.166;2022-12-04T21:42:21;13.90;;;8.27;;
76701;SDS011;65630;44.498;0.166;2022-12-04T21:56:12;124.17;;;25.33;;
76701;SDS011;65630;44.498;0.166;2022-12-04T22:10:03;36.73;;;15.70;;
76701;SDS011;65630;44.498;0.166;2022-12-04T22:23:54;282.27;;;21.27;;
76701;SDS011;65630;44.498;0.166;2022-12-04T22:37:43;42.37;;;15.93;;
76701;SDS011;65630;44.498;0.166;2022-12-04T22:51:34;17.93;;;8.73;;
76701;SDS011;65630;44.498;0.166;2022-12-04T23:05:24;27.37;;;11.93;;
76701;SDS011;65630;44.498;0.166;2022-12-04T23:19:16;22.33;;;11.87;;
76701;SDS011;65630;44.498;0.166;2022-12-04T23:33:06;26.37;;;13.57;;
76701;SDS011;65630;44.498;0.166;2022-12-04T23:46:57;79.90;;;16.90;;
